sensor_id;sensor_type;location;lat;lon;timestamp;P1;durP1;ratioP1;P2;durP2;ratioP2
72209;SDS011;60113;48.762;12.302;2023-08-21T00:01:41;7.85;;;5.88;;
72209;SDS011;60113;48.762;12.302;2023-08-21T00:04:13;8.00;;;6.53;;
72209;SDS011;60113;48.762;12.302;2023-08-21T00:06:38;12.50;;;6.25;;
72209;SDS011;60113;48.762;12.302;2023-08-21T00:09:15;11.40;;;6.25;;
72209;SDS011;60113;48.762;12.302;2023-08-21T00:11:41;13.73;;;6.43;;
72209;SDS011;60113;48.762;12.302;2023-08-21T00:14:21;12.85;;;6.55;;
72209;SDS011;60113;48.762;12.302;2023-08-21T00:16:52;9.13;;;6.47;;
72209;SDS011;60113;48.762;12.302;2023-08-21T00:19:17;9.75;;;6.88;;
72209;SDS011;60113;48.762;12.302;2023-08-21T00:21:46;14.63;;;7.10;;
72209;SDS011;60113;48.762;12.302;2023-08-21T00:24:11;12.25;;;7.25;;
72209;SDS011;60113;48.762;12.302;2023-08-21T00:26:39;11.93;;;6.97;;
72209;SDS011;60113;48.762;12.302;2023-08-21T00:29:07;13.63;;;6.57;;
72209;SDS011;60113;48.762;12.302;2023-08-21T00:31:32;10.80;;;7.38;;
72209;SDS011;60113;48.762;12.302;2023-08-21T00:34:00;9.60;;;6.60;;
72209;SDS011;60113;48.762;12.302;2023-08-21T00:36:37;13.48;;;6.93;;
72209;SDS011;60113;48.762;12.302;2023-08-21T00:39:22;11.52;;;7.18;;
72209;SDS011;60113;48.762;12.302;2023-08-21T00:41:47;12.25;;;7.20;;
72209;SDS011;60113;48.762;12.302;2023-08-21T00:44:12;13.27;;;7.60;;
72209;SDS011;60113;48.762;12.302;2023-08-21T00:46:37;11.30;;;7.15;;
72209;SDS011;60113;48.762;12.302;2023-08-21T00:49:12;11.90;;;7.55;;
72209;SDS011;60113;48.762;12.302;2023-08-21T00:51:37;15.10;;;7.28;;
72209;SDS011;60113;48.762;12.302;2023-08-21T00:54:12;10.38;;;7.05;;
72209;SDS011;60113;48.762;12.302;2023-08-21T00:56:40;9.30;;;6.93;;
72209;SDS011;60113;48.762;12.302;2023-08-21T00:59:24;10.60;;;7.35;;
72209;SDS011;60113;48.762;12.302;2023-08-21T01:01:49;10.52;;;7.15;;
72209;SDS011;60113;48.762;12.302;2023-08-21T01:04:18;8.48;;;6.70;;
72209;SDS011;60113;48.762;12.302;2023-08-21T01:06:47;10.13;;;6.68;;
72209;SDS011;60113;48.762;12.302;2023-08-21T01:12:37;13.75;;;6.50;;
72209;SDS011;60113;48.762;12.302;2023-08-21T01:15:19;11.30;;;7.72;;
72209;SDS011;60113;48.762;12.302;2023-08-21T01:17:45;11.73;;;6.75;;
72209;SDS011;60113;48.762;12.302;2023-08-21T01:20:17;12.10;;;7.00;;
72209;SDS011;60113;48.762;12.302;2023-08-21T01:22:45;9.90;;;6.90;;
72209;SDS011;60113;48.762;12.302;2023-08-21T01:25:11;9.90;;;6.78;;
72209;SDS011;60113;48.762;12.302;2023-08-21T01:27:43;8.98;;;7.10;;
72209;SDS011;60113;48.762;12.302;2023-08-21T01:30:21;9.48;;;7.07;;
72209;SDS011;60113;48.762;12.302;2023-08-21T01:32:53;12.93;;;7.50;;
72209;SDS011;60113;48.762;12.302;2023-08-21T01:35:25;10.88;;;7.43;;
72209;SDS011;60113;48.762;12.302;2023-08-21T01:37:52;8.77;;;7.35;;
72209;SDS011;60113;48.762;12.302;2023-08-21T01:40:21;14.48;;;7.97;;
72209;SDS011;60113;48.762;12.302;2023-08-21T01:42:47;10.85;;;7.50;;
72209;SDS011;60113;48.762;12.302;2023-08-21T01:45:16;11.18;;;6.93;;
72209;SDS011;60113;48.762;12.302;2023-08-21T01:47:41;9.70;;;7.22;;
72209;SDS011;60113;48.762;12.302;2023-08-21T01:50:07;10.40;;;7.18;;
72209;SDS011;60113;48.762;12.302;2023-08-21T01:52:33;10.40;;;7.53;;
72209;SDS011;60113;48.762;12.302;2023-08-21T01:54:59;11.25;;;7.45;;
72209;SDS011;60113;48.762;12.302;2023-08-21T01:57:24;13.05;;;6.97;;
72209;SDS011;60113;48.762;12.302;2023-08-21T01:59:50;11.35;;;6.90;;
72209;SDS011;60113;48.762;12.302;2023-08-21T02:02:15;10.75;;;6.95;;
72209;SDS011;60113;48.762;12.302;2023-08-21T02:04:43;10.98;;;7.38;;
72209;SDS011;60113;48.762;12.302;2023-08-21T02:07:11;8.93;;;6.72;;
72209;SDS011;60113;48.762;12.302;2023-08-21T02:09:36;8.02;;;6.72;;
72209;SDS011;60113;48.762;12.302;2023-08-21T02:12:04;9.57;;;7.20;;
72209;SDS011;60113;48.762;12.302;2023-08-21T02:14:33;8.57;;;6.38;;
72209;SDS011;60113;48.762;12.302;2023-08-21T02:16:58;14.05;;;6.95;;
72209;SDS011;60113;48.762;12.302;2023-08-21T02:19:24;9.98;;;7.00;;
72209;SDS011;60113;48.762;12.302;2023-08-21T02:21:50;9.75;;;6.82;;
72209;SDS011;60113;48.762;12.302;2023-08-21T02:24:15;14.18;;;6.70;;
72209;SDS011;60113;48.762;12.302;2023-08-21T02:26:40;8.07;;;6.30;;
72209;SDS011;60113;48.762;12.302;2023-08-21T02:29:08;12.93;;;7.43;;
72209;SDS011;60113;48.762;12.302;2023-08-21T02:31:33;12.23;;;7.18;;
72209;SDS011;60113;48.762;12.302;2023-08-21T02:33:58;11.75;;;8.15;;
72209;SDS011;60113;48.762;12.302;2023-08-21T02:36:42;11.13;;;8.00;;
72209;SDS011;60113;48.762;12.302;2023-08-21T02:39:08;11.88;;;8.50;;
72209;SDS011;60113;48.762;12.302;2023-08-21T02:41:39;11.45;;;8.18;;
72209;SDS011;60113;48.762;12.302;2023-08-21T02:44:04;13.45;;;9.18;;
72209;SDS011;60113;48.762;12.302;2023-08-21T02:46:38;10.43;;;8.55;;
72209;SDS011;60113;48.762;12.302;2023-08-21T02:49:15;10.73;;;7.82;;
72209;SDS011;60113;48.762;12.302;2023-08-21T02:51:41;12.45;;;9.05;;
72209;SDS011;60113;48.762;12.302;2023-08-21T02:54:19;12.85;;;7.97;;
72209;SDS011;60113;48.762;12.302;2023-08-21T02:56:44;11.23;;;8.18;;
72209;SDS011;60113;48.762;12.302;2023-08-21T02:59:09;17.67;;;8.50;;
72209;SDS011;60113;48.762;12.302;2023-08-21T03:01:37;10.48;;;7.93;;
72209;SDS011;60113;48.762;12.302;2023-08-21T03:04:15;13.35;;;8.13;;
72209;SDS011;60113;48.762;12.302;2023-08-21T03:06:42;12.10;;;7.80;;
72209;SDS011;60113;48.762;12.302;2023-08-21T03:09:20;10.65;;;8.40;;
72209;SDS011;60113;48.762;12.302;2023-08-21T03:11:45;11.25;;;7.32;;
72209;SDS011;60113;48.762;12.302;2023-08-21T03:14:24;12.55;;;7.80;;
72209;SDS011;60113;48.762;12.302;2023-08-21T03:16:59;11.00;;;8.48;;
72209;SDS011;60113;48.762;12.302;2023-08-21T03:19:25;11.98;;;8.70;;
72209;SDS011;60113;48.762;12.302;2023-08-21T03:21:53;15.10;;;10.43;;
72209;SDS011;60113;48.762;12.302;2023-08-21T03:24:21;16.80;;;12.25;;
72209;SDS011;60113;48.762;12.302;2023-08-21T03:26:52;21.20;;;11.82;;
72209;SDS011;60113;48.762;12.302;2023-08-21T03:29:17;21.00;;;12.07;;
72209;SDS011;60113;48.762;12.302;2023-08-21T03:31:54;22.92;;;12.85;;
72209;SDS011;60113;48.762;12.302;2023-08-21T03:34:23;16.08;;;12.00;;
72209;SDS011;60113;48.762;12.302;2023-08-21T03:36:49;13.55;;;9.88;;
72209;SDS011;60113;48.762;12.302;2023-08-21T03:39:23;36.38;;;24.15;;
72209;SDS011;60113;48.762;12.302;2023-08-21T03:41:48;16.08;;;11.20;;
72209;SDS011;60113;48.762;12.302;2023-08-21T03:44:14;13.05;;;9.38;;
72209;SDS011;60113;48.762;12.302;2023-08-21T03:46:39;15.45;;;10.05;;
72209;SDS011;60113;48.762;12.302;2023-08-21T03:49:10;14.52;;;9.48;;
72209;SDS011;60113;48.762;12.302;2023-08-21T03:51:36;10.90;;;8.98;;
72209;SDS011;60113;48.762;12.302;2023-08-21T03:54:10;12.90;;;8.30;;
72209;SDS011;60113;48.762;12.302;2023-08-21T03:56:42;15.50;;;8.25;;
72209;SDS011;60113;48.762;12.302;2023-08-21T03:59:07;12.18;;;9.23;;
72209;SDS011;60113;48.762;12.302;2023-08-21T04:01:38;11.55;;;7.45;;
72209;SDS011;60113;48.762;12.302;2023-08-21T04:04:03;10.68;;;8.38;;
72209;SDS011;60113;48.762;12.302;2023-08-21T04:06:32;13.45;;;9.10;;
72209;SDS011;60113;48.762;12.302;2023-08-21T04:09:00;12.05;;;8.57;;
72209;SDS011;60113;48.762;12.302;2023-08-21T04:11:28;10.98;;;8.30;;
72209;SDS011;60113;48.762;12.302;2023-08-21T04:13:54;15.10;;;8.23;;
72209;SDS011;60113;48.762;12.302;2023-08-21T04:16:19;15.40;;;8.40;;
72209;SDS011;60113;48.762;12.302;2023-08-21T04:18:49;10.70;;;8.00;;
72209;SDS011;60113;48.762;12.302;2023-08-21T04:21:17;10.90;;;7.60;;
72209;SDS011;60113;48.762;12.302;2023-08-21T04:23:48;18.30;;;8.45;;
72209;SDS011;60113;48.762;12.302;2023-08-21T04:26:29;10.25;;;8.02;;
72209;SDS011;60113;48.762;12.302;2023-08-21T04:28:54;14.93;;;8.52;;
72209;SDS011;60113;48.762;12.302;2023-08-21T04:31:19;12.93;;;9.40;;
72209;SDS011;60113;48.762;12.302;2023-08-21T04:33:45;11.65;;;9.05;;
72209;SDS011;60113;48.762;12.302;2023-08-21T04:36:16;12.38;;;10.18;;
72209;SDS011;60113;48.762;12.302;2023-08-21T04:38:44;13.93;;;10.13;;
72209;SDS011;60113;48.762;12.302;2023-08-21T04:41:13;26.27;;;9.68;;
72209;SDS011;60113;48.762;12.302;2023-08-21T04:43:47;21.02;;;9.85;;
72209;SDS011;60113;48.762;12.302;2023-08-21T04:46:15;15.80;;;9.73;;
72209;SDS011;60113;48.762;12.302;2023-08-21T04:48:40;14.05;;;9.30;;
72209;SDS011;60113;48.762;12.302;2023-08-21T04:51:08;20.23;;;10.23;;
72209;SDS011;60113;48.762;12.302;2023-08-21T04:53:43;15.25;;;9.73;;
72209;SDS011;60113;48.762;12.302;2023-08-21T04:56:09;16.90;;;9.45;;
72209;SDS011;60113;48.762;12.302;2023-08-21T04:58:34;14.65;;;9.63;;
72209;SDS011;60113;48.762;12.302;2023-08-21T05:01:04;13.18;;;8.40;;
72209;SDS011;60113;48.762;12.302;2023-08-21T05:03:29;11.02;;;8.82;;
72209;SDS011;60113;48.762;12.302;2023-08-21T05:06:01;11.48;;;9.05;;
72209;SDS011;60113;48.762;12.302;2023-08-21T05:08:28;18.23;;;8.95;;
72209;SDS011;60113;48.762;12.302;2023-08-21T05:10:54;10.75;;;8.38;;
72209;SDS011;60113;48.762;12.302;2023-08-21T05:13:21;12.25;;;9.07;;
72209;SDS011;60113;48.762;12.302;2023-08-21T05:15:50;22.02;;;9.25;;
72209;SDS011;60113;48.762;12.302;2023-08-21T05:18:22;14.13;;;9.60;;
72209;SDS011;60113;48.762;12.302;2023-08-21T05:20:55;13.52;;;9.18;;
72209;SDS011;60113;48.762;12.302;2023-08-21T05:23:23;13.93;;;8.07;;
72209;SDS011;60113;48.762;12.302;2023-08-21T05:25:49;11.23;;;8.25;;
72209;SDS011;60113;48.762;12.302;2023-08-21T05:28:14;10.00;;;8.13;;
72209;SDS011;60113;48.762;12.302;2023-08-21T05:30:40;16.15;;;8.25;;
72209;SDS011;60113;48.762;12.302;2023-08-21T05:33:05;9.30;;;7.75;;
72209;SDS011;60113;48.762;12.302;2023-08-21T05:35:34;11.82;;;8.07;;
72209;SDS011;60113;48.762;12.302;2023-08-21T05:38:06;15.20;;;8.77;;
72209;SDS011;60113;48.762;12.302;2023-08-21T05:40:31;14.70;;;8.68;;
72209;SDS011;60113;48.762;12.302;2023-08-21T05:42:57;13.57;;;8.65;;
72209;SDS011;60113;48.762;12.302;2023-08-21T05:45:23;12.68;;;8.02;;
72209;SDS011;60113;48.762;12.302;2023-08-21T05:47:48;8.88;;;7.38;;
72209;SDS011;60113;48.762;12.302;2023-08-21T05:50:13;11.23;;;8.15;;
72209;SDS011;60113;48.762;12.302;2023-08-21T05:52:39;12.95;;;7.90;;
72209;SDS011;60113;48.762;12.302;2023-08-21T05:55:05;9.98;;;7.93;;
72209;SDS011;60113;48.762;12.302;2023-08-21T05:57:39;12.85;;;8.20;;
72209;SDS011;60113;48.762;12.302;2023-08-21T06:00:05;13.88;;;8.32;;
72209;SDS011;60113;48.762;12.302;2023-08-21T06:02:36;10.85;;;7.85;;
72209;SDS011;60113;48.762;12.302;2023-08-21T06:05:01;13.82;;;8.27;;
72209;SDS011;60113;48.762;12.302;2023-08-21T06:07:32;11.88;;;8.13;;
72209;SDS011;60113;48.762;12.302;2023-08-21T06:10:00;14.23;;;8.02;;
72209;SDS011;60113;48.762;12.302;2023-08-21T06:12:38;11.50;;;7.60;;
72209;SDS011;60113;48.762;12.302;2023-08-21T06:15:14;8.65;;;7.43;;
72209;SDS011;60113;48.762;12.302;2023-08-21T06:17:39;10.32;;;7.00;;
72209;SDS011;60113;48.762;12.302;2023-08-21T06:20:08;11.77;;;7.45;;
72209;SDS011;60113;48.762;12.302;2023-08-21T06:22:43;12.95;;;7.20;;
72209;SDS011;60113;48.762;12.302;2023-08-21T06:25:08;12.18;;;8.40;;
72209;SDS011;60113;48.762;12.302;2023-08-21T06:27:33;13.80;;;7.05;;
72209;SDS011;60113;48.762;12.302;2023-08-21T06:29:59;12.10;;;6.90;;
72209;SDS011;60113;48.762;12.302;2023-08-21T06:32:24;9.25;;;6.72;;
72209;SDS011;60113;48.762;12.302;2023-08-21T06:34:50;14.55;;;7.38;;
72209;SDS011;60113;48.762;12.302;2023-08-21T06:37:21;13.82;;;6.60;;
72209;SDS011;60113;48.762;12.302;2023-08-21T06:39:47;9.50;;;6.25;;
72209;SDS011;60113;48.762;12.302;2023-08-21T06:42:15;9.30;;;6.00;;
72209;SDS011;60113;48.762;12.302;2023-08-21T06:44:46;9.05;;;7.03;;
72209;SDS011;60113;48.762;12.302;2023-08-21T06:47:15;15.95;;;7.63;;
72209;SDS011;60113;48.762;12.302;2023-08-21T06:49:40;10.77;;;6.50;;
72209;SDS011;60113;48.762;12.302;2023-08-21T06:52:05;12.05;;;6.15;;
72209;SDS011;60113;48.762;12.302;2023-08-21T06:54:31;9.25;;;6.03;;
72209;SDS011;60113;48.762;12.302;2023-08-21T06:56:59;10.13;;;5.63;;
72209;SDS011;60113;48.762;12.302;2023-08-21T06:59:24;6.20;;;5.20;;
72209;SDS011;60113;48.762;12.302;2023-08-21T07:01:49;8.55;;;5.95;;
72209;SDS011;60113;48.762;12.302;2023-08-21T07:04:19;8.40;;;5.75;;
72209;SDS011;60113;48.762;12.302;2023-08-21T07:06:44;9.32;;;5.00;;
72209;SDS011;60113;48.762;12.302;2023-08-21T07:09:19;7.60;;;5.35;;
72209;SDS011;60113;48.762;12.302;2023-08-21T07:11:44;6.93;;;5.28;;
72209;SDS011;60113;48.762;12.302;2023-08-21T07:14:09;14.75;;;5.22;;
72209;SDS011;60113;48.762;12.302;2023-08-21T07:16:43;6.88;;;5.07;;
72209;SDS011;60113;48.762;12.302;2023-08-21T07:19:09;8.00;;;5.20;;
72209;SDS011;60113;48.762;12.302;2023-08-21T07:21:43;6.45;;;4.72;;
72209;SDS011;60113;48.762;12.302;2023-08-21T07:24:08;8.40;;;5.00;;
72209;SDS011;60113;48.762;12.302;2023-08-21T07:26:34;7.45;;;4.88;;
72209;SDS011;60113;48.762;12.302;2023-08-21T07:28:59;8.77;;;4.70;;
72209;SDS011;60113;48.762;12.302;2023-08-21T07:31:33;6.07;;;4.63;;
72209;SDS011;60113;48.762;12.302;2023-08-21T07:34:14;17.20;;;5.32;;
72209;SDS011;60113;48.762;12.302;2023-08-21T07:36:42;10.25;;;5.15;;
72209;SDS011;60113;48.762;12.302;2023-08-21T07:39:13;10.98;;;5.25;;
72209;SDS011;60113;48.762;12.302;2023-08-21T07:41:39;11.00;;;5.50;;
72209;SDS011;60113;48.762;12.302;2023-08-21T07:44:06;11.25;;;5.00;;
72209;SDS011;60113;48.762;12.302;2023-08-21T07:46:32;8.20;;;4.90;;
72209;SDS011;60113;48.762;12.302;2023-08-21T07:49:00;10.30;;;4.80;;
72209;SDS011;60113;48.762;12.302;2023-08-21T07:51:28;6.25;;;4.82;;
72209;SDS011;60113;48.762;12.302;2023-08-21T07:53:53;7.85;;;5.30;;
72209;SDS011;60113;48.762;12.302;2023-08-21T07:56:19;13.82;;;5.15;;
72209;SDS011;60113;48.762;12.302;2023-08-21T07:58:44;12.93;;;5.22;;
72209;SDS011;60113;48.762;12.302;2023-08-21T08:01:12;10.55;;;5.18;;
72209;SDS011;60113;48.762;12.302;2023-08-21T08:03:40;7.35;;;5.00;;
72209;SDS011;60113;48.762;12.302;2023-08-21T08:06:05;8.43;;;4.47;;
72209;SDS011;60113;48.762;12.302;2023-08-21T08:08:40;8.00;;;5.15;;
72209;SDS011;60113;48.762;12.302;2023-08-21T08:11:08;8.35;;;4.80;;
72209;SDS011;60113;48.762;12.302;2023-08-21T08:13:52;9.00;;;5.03;;
72209;SDS011;60113;48.762;12.302;2023-08-21T08:16:17;10.00;;;4.82;;
72209;SDS011;60113;48.762;12.302;2023-08-21T08:18:43;6.28;;;4.88;;
72209;SDS011;60113;48.762;12.302;2023-08-21T08:21:08;7.10;;;5.03;;
72209;SDS011;60113;48.762;12.302;2023-08-21T08:23:35;6.43;;;4.65;;
72209;SDS011;60113;48.762;12.302;2023-08-21T08:26:03;8.48;;;5.05;;
72209;SDS011;60113;48.762;12.302;2023-08-21T08:28:46;7.57;;;5.32;;
72209;SDS011;60113;48.762;12.302;2023-08-21T08:31:18;8.75;;;4.93;;
72209;SDS011;60113;48.762;12.302;2023-08-21T08:33:46;5.30;;;4.47;;
72209;SDS011;60113;48.762;12.302;2023-08-21T08:36:13;9.45;;;5.03;;
72209;SDS011;60113;48.762;12.302;2023-08-21T08:38:38;8.52;;;4.53;;
72209;SDS011;60113;48.762;12.302;2023-08-21T08:41:06;6.43;;;5.22;;
72209;SDS011;60113;48.762;12.302;2023-08-21T08:43:36;6.75;;;5.03;;
72209;SDS011;60113;48.762;12.302;2023-08-21T08:46:05;5.90;;;4.85;;
72209;SDS011;60113;48.762;12.302;2023-08-21T08:48:32;7.70;;;4.90;;
72209;SDS011;60113;48.762;12.302;2023-08-21T08:51:02;8.90;;;4.68;;
72209;SDS011;60113;48.762;12.302;2023-08-21T08:53:30;8.18;;;4.85;;
72209;SDS011;60113;48.762;12.302;2023-08-21T08:55:58;6.60;;;4.60;;
72209;SDS011;60113;48.762;12.302;2023-08-21T08:58:24;11.40;;;4.80;;
72209;SDS011;60113;48.762;12.302;2023-08-21T09:00:49;9.77;;;5.47;;
72209;SDS011;60113;48.762;12.302;2023-08-21T09:03:15;6.32;;;4.95;;
72209;SDS011;60113;48.762;12.302;2023-08-21T09:05:40;6.55;;;4.75;;
72209;SDS011;60113;48.762;12.302;2023-08-21T09:10:31;7.75;;;4.70;;
72209;SDS011;60113;48.762;12.302;2023-08-21T09:12:57;8.55;;;4.50;;
72209;SDS011;60113;48.762;12.302;2023-08-21T09:15:29;10.57;;;5.05;;
72209;SDS011;60113;48.762;12.302;2023-08-21T09:17:57;7.75;;;4.32;;
72209;SDS011;60113;48.762;12.302;2023-08-21T09:20:22;11.13;;;4.40;;
72209;SDS011;60113;48.762;12.302;2023-08-21T09:22:54;7.32;;;4.60;;
72209;SDS011;60113;48.762;12.302;2023-08-21T09:25:35;8.23;;;4.38;;
72209;SDS011;60113;48.762;12.302;2023-08-21T09:28:08;6.03;;;4.63;;
72209;SDS011;60113;48.762;12.302;2023-08-21T09:30:47;12.43;;;5.05;;
72209;SDS011;60113;48.762;12.302;2023-08-21T09:33:32;5.53;;;4.57;;
72209;SDS011;60113;48.762;12.302;2023-08-21T09:36:02;6.85;;;4.90;;
72209;SDS011;60113;48.762;12.302;2023-08-21T09:38:36;6.25;;;4.07;;
72209;SDS011;60113;48.762;12.302;2023-08-21T09:41:04;6.10;;;4.57;;
72209;SDS011;60113;48.762;12.302;2023-08-21T09:43:42;7.45;;;4.93;;
72209;SDS011;60113;48.762;12.302;2023-08-21T09:46:14;6.53;;;4.70;;
72209;SDS011;60113;48.762;12.302;2023-08-21T09:48:46;7.97;;;4.70;;
72209;SDS011;60113;48.762;12.302;2023-08-21T09:51:21;6.15;;;4.18;;
72209;SDS011;60113;48.762;12.302;2023-08-21T09:53:47;7.60;;;4.57;;
72209;SDS011;60113;48.762;12.302;2023-08-21T09:56:19;7.78;;;4.68;;
72209;SDS011;60113;48.762;12.302;2023-08-21T09:58:47;9.57;;;4.50;;
72209;SDS011;60113;48.762;12.302;2023-08-21T10:01:19;8.40;;;4.43;;
72209;SDS011;60113;48.762;12.302;2023-08-21T10:03:46;4.65;;;3.90;;
72209;SDS011;60113;48.762;12.302;2023-08-21T10:06:17;9.18;;;5.05;;
72209;SDS011;60113;48.762;12.302;2023-08-21T10:08:45;7.57;;;4.30;;
72209;SDS011;60113;48.762;12.302;2023-08-21T10:11:13;5.90;;;4.30;;
72209;SDS011;60113;48.762;12.302;2023-08-21T10:13:39;6.78;;;3.95;;
72209;SDS011;60113;48.762;12.302;2023-08-21T10:16:17;5.25;;;3.97;;
72209;SDS011;60113;48.762;12.302;2023-08-21T10:18:46;4.75;;;4.15;;
72209;SDS011;60113;48.762;12.302;2023-08-21T10:21:20;4.75;;;4.20;;
72209;SDS011;60113;48.762;12.302;2023-08-21T10:23:50;5.57;;;3.65;;
72209;SDS011;60113;48.762;12.302;2023-08-21T10:26:19;5.05;;;4.00;;
72209;SDS011;60113;48.762;12.302;2023-08-21T10:31:25;6.05;;;4.00;;
72209;SDS011;60113;48.762;12.302;2023-08-21T10:33:50;5.55;;;4.03;;
72209;SDS011;60113;48.762;12.302;2023-08-21T10:36:36;9.48;;;3.72;;
72209;SDS011;60113;48.762;12.302;2023-08-21T10:39:05;5.65;;;3.70;;
72209;SDS011;60113;48.762;12.302;2023-08-21T10:42:09;6.20;;;3.83;;
72209;SDS011;60113;48.762;12.302;2023-08-21T10:47:14;4.80;;;3.45;;
72209;SDS011;60113;48.762;12.302;2023-08-21T10:49:40;4.85;;;3.95;;
72209;SDS011;60113;48.762;12.302;2023-08-21T10:52:11;7.95;;;4.20;;
72209;SDS011;60113;48.762;12.302;2023-08-21T10:54:46;5.18;;;3.90;;
72209;SDS011;60113;48.762;12.302;2023-08-21T10:57:17;7.22;;;4.03;;
72209;SDS011;60113;48.762;12.302;2023-08-21T10:59:52;5.60;;;4.10;;
72209;SDS011;60113;48.762;12.302;2023-08-21T11:02:39;6.00;;;4.00;;
72209;SDS011;60113;48.762;12.302;2023-08-21T11:05:11;10.50;;;4.00;;
72209;SDS011;60113;48.762;12.302;2023-08-21T11:07:42;5.40;;;3.85;;
72209;SDS011;60113;48.762;12.302;2023-08-21T11:10:16;9.00;;;3.87;;
72209;SDS011;60113;48.762;12.302;2023-08-21T11:12:52;6.57;;;4.28;;
72209;SDS011;60113;48.762;12.302;2023-08-21T11:15:20;5.82;;;3.60;;
72209;SDS011;60113;48.762;12.302;2023-08-21T11:17:55;7.88;;;3.55;;
72209;SDS011;60113;48.762;12.302;2023-08-21T11:20:33;5.32;;;3.53;;
72209;SDS011;60113;48.762;12.302;2023-08-21T11:23:00;8.93;;;3.78;;
72209;SDS011;60113;48.762;12.302;2023-08-21T11:25:30;4.68;;;3.60;;
72209;SDS011;60113;48.762;12.302;2023-08-21T11:27:56;6.85;;;3.25;;
72209;SDS011;60113;48.762;12.302;2023-08-21T11:30:22;6.35;;;3.78;;
72209;SDS011;60113;48.762;12.302;2023-08-21T11:32:48;5.38;;;3.42;;
72209;SDS011;60113;48.762;12.302;2023-08-21T11:35:15;7.60;;;4.10;;
72209;SDS011;60113;48.762;12.302;2023-08-21T11:37:56;6.82;;;3.70;;
72209;SDS011;60113;48.762;12.302;2023-08-21T11:40:21;8.45;;;3.67;;
72209;SDS011;60113;48.762;12.302;2023-08-21T11:43:05;7.78;;;4.43;;
72209;SDS011;60113;48.762;12.302;2023-08-21T11:45:32;7.93;;;3.88;;
72209;SDS011;60113;48.762;12.302;2023-08-21T11:48:01;6.40;;;3.78;;
72209;SDS011;60113;48.762;12.302;2023-08-21T11:50:29;5.15;;;3.92;;
72209;SDS011;60113;48.762;12.302;2023-08-21T11:52:54;5.35;;;3.60;;
72209;SDS011;60113;48.762;12.302;2023-08-21T11:55:20;6.32;;;3.50;;
72209;SDS011;60113;48.762;12.302;2023-08-21T11:57:48;6.78;;;3.28;;
72209;SDS011;60113;48.762;12.302;2023-08-21T12:00:15;5.05;;;3.13;;
72209;SDS011;60113;48.762;12.302;2023-08-21T12:02:53;4.00;;;3.30;;
72209;SDS011;60113;48.762;12.302;2023-08-21T12:05:20;3.70;;;2.90;;
72209;SDS011;60113;48.762;12.302;2023-08-21T12:07:48;6.18;;;3.65;;
72209;SDS011;60113;48.762;12.302;2023-08-21T12:10:24;4.53;;;3.45;;
72209;SDS011;60113;48.762;12.302;2023-08-21T12:12:50;7.15;;;3.72;;
72209;SDS011;60113;48.762;12.302;2023-08-21T12:15:18;11.80;;;3.05;;
72209;SDS011;60113;48.762;12.302;2023-08-21T12:17:44;5.97;;;3.42;;
72209;SDS011;60113;48.762;12.302;2023-08-21T12:20:09;4.07;;;3.05;;
72209;SDS011;60113;48.762;12.302;2023-08-21T12:22:40;5.97;;;3.60;;
72209;SDS011;60113;48.762;12.302;2023-08-21T12:25:16;4.88;;;3.40;;
72209;SDS011;60113;48.762;12.302;2023-08-21T12:27:54;4.70;;;3.10;;
72209;SDS011;60113;48.762;12.302;2023-08-21T12:30:19;4.50;;;3.40;;
72209;SDS011;60113;48.762;12.302;2023-08-21T12:32:44;8.75;;;2.90;;
72209;SDS011;60113;48.762;12.302;2023-08-21T12:35:10;4.05;;;3.20;;
72209;SDS011;60113;48.762;12.302;2023-08-21T12:37:43;3.42;;;2.80;;
72209;SDS011;60113;48.762;12.302;2023-08-21T12:40:11;4.35;;;3.10;;
72209;SDS011;60113;48.762;12.302;2023-08-21T12:42:42;4.50;;;2.78;;
72209;SDS011;60113;48.762;12.302;2023-08-21T12:45:08;3.53;;;2.90;;
72209;SDS011;60113;48.762;12.302;2023-08-21T12:47:33;3.38;;;2.92;;
72209;SDS011;60113;48.762;12.302;2023-08-21T12:49:59;4.68;;;3.10;;
72209;SDS011;60113;48.762;12.302;2023-08-21T12:52:24;4.03;;;3.17;;
72209;SDS011;60113;48.762;12.302;2023-08-21T12:55:02;4.78;;;3.15;;
72209;SDS011;60113;48.762;12.302;2023-08-21T12:57:33;4.68;;;3.10;;
72209;SDS011;60113;48.762;12.302;2023-08-21T12:59:59;6.25;;;3.13;;
72209;SDS011;60113;48.762;12.302;2023-08-21T13:02:24;7.93;;;2.92;;
72209;SDS011;60113;48.762;12.302;2023-08-21T13:04:52;5.13;;;3.40;;
72209;SDS011;60113;48.762;12.302;2023-08-21T13:07:17;7.55;;;2.85;;
72209;SDS011;60113;48.762;12.302;2023-08-21T13:09:43;7.90;;;3.08;;
72209;SDS011;60113;48.762;12.302;2023-08-21T13:12:11;4.55;;;2.97;;
72209;SDS011;60113;48.762;12.302;2023-08-21T13:14:36;4.13;;;2.80;;
72209;SDS011;60113;48.762;12.302;2023-08-21T13:17:10;6.45;;;3.08;;
72209;SDS011;60113;48.762;12.302;2023-08-21T13:19:35;7.05;;;3.10;;
72209;SDS011;60113;48.762;12.302;2023-08-21T13:22:10;3.78;;;3.00;;
72209;SDS011;60113;48.762;12.302;2023-08-21T13:24:38;4.65;;;3.00;;
72209;SDS011;60113;48.762;12.302;2023-08-21T13:27:15;5.75;;;3.00;;
72209;SDS011;60113;48.762;12.302;2023-08-21T13:29:45;4.55;;;2.70;;
72209;SDS011;60113;48.762;12.302;2023-08-21T13:32:20;6.90;;;3.50;;
72209;SDS011;60113;48.762;12.302;2023-08-21T13:34:45;8.80;;;3.53;;
72209;SDS011;60113;48.762;12.302;2023-08-21T13:37:10;6.40;;;3.05;;
72209;SDS011;60113;48.762;12.302;2023-08-21T13:39:41;3.70;;;3.00;;
72209;SDS011;60113;48.762;12.302;2023-08-21T13:42:07;4.97;;;3.20;;
72209;SDS011;60113;48.762;12.302;2023-08-21T13:44:44;3.53;;;2.58;;
72209;SDS011;60113;48.762;12.302;2023-08-21T13:47:10;5.75;;;2.97;;
72209;SDS011;60113;48.762;12.302;2023-08-21T13:49:36;9.80;;;3.33;;
72209;SDS011;60113;48.762;12.302;2023-08-21T13:52:05;5.10;;;3.20;;
72209;SDS011;60113;48.762;12.302;2023-08-21T13:54:33;13.32;;;3.50;;
72209;SDS011;60113;48.762;12.302;2023-08-21T13:56:58;6.18;;;2.88;;
72209;SDS011;60113;48.762;12.302;2023-08-21T13:59:34;5.05;;;2.70;;
72209;SDS011;60113;48.762;12.302;2023-08-21T14:01:59;5.90;;;2.78;;
72209;SDS011;60113;48.762;12.302;2023-08-21T14:04:33;4.45;;;2.60;;
72209;SDS011;60113;48.762;12.302;2023-08-21T14:06:59;3.65;;;2.78;;
72209;SDS011;60113;48.762;12.302;2023-08-21T14:09:24;3.47;;;2.65;;
72209;SDS011;60113;48.762;12.302;2023-08-21T14:11:52;3.45;;;2.45;;
72209;SDS011;60113;48.762;12.302;2023-08-21T14:14:17;6.10;;;2.70;;
72209;SDS011;60113;48.762;12.302;2023-08-21T14:16:45;7.22;;;2.70;;
72209;SDS011;60113;48.762;12.302;2023-08-21T14:19:10;4.10;;;2.50;;
72209;SDS011;60113;48.762;12.302;2023-08-21T14:24:16;4.03;;;2.55;;
72209;SDS011;60113;48.762;12.302;2023-08-21T14:26:50;4.07;;;2.70;;
72209;SDS011;60113;48.762;12.302;2023-08-21T14:29:18;5.80;;;2.70;;
72209;SDS011;60113;48.762;12.302;2023-08-21T14:31:44;5.53;;;2.85;;
72209;SDS011;60113;48.762;12.302;2023-08-21T14:34:15;3.95;;;2.40;;
72209;SDS011;60113;48.762;12.302;2023-08-21T14:36:41;5.00;;;2.13;;
72209;SDS011;60113;48.762;12.302;2023-08-21T14:39:07;7.13;;;2.40;;
72209;SDS011;60113;48.762;12.302;2023-08-21T14:41:35;6.75;;;2.85;;
72209;SDS011;60113;48.762;12.302;2023-08-21T14:44:01;5.43;;;2.63;;
72209;SDS011;60113;48.762;12.302;2023-08-21T14:46:27;9.10;;;3.00;;
72209;SDS011;60113;48.762;12.302;2023-08-21T14:49:02;5.57;;;2.60;;
72209;SDS011;60113;48.762;12.302;2023-08-21T14:51:30;3.05;;;2.40;;
72209;SDS011;60113;48.762;12.302;2023-08-21T14:54:02;4.60;;;2.08;;